Time;durP1;ratioP1;P1;durP2;ratioP2;P2;SDS_P1;SDS_P2;PMS_P1;PMS_P2;Temp;Humidity;BMP_temperature;BMP_pressure;BME280_temperature;BME280_humidity;BME280_pressure;Samples;Min_cycle;Max_cycle;Signal;HPM_P1;HPM_P2
2021/08/21 00:01:46;;;;;;;2.20;2.00;;;21.70;99.90;;;;;;5011389;28;20228;-78
2021/08/21 00:04:15;;;;;;;2.35;2.05;;;21.60;99.90;;;;;;5007520;28;20286;-77
2021/08/21 00:06:42;;;;;;;1.92;1.75;;;21.60;99.90;;;;;;5009314;28;20219;-78
2021/08/21 00:09:09;;;;;;;2.13;1.92;;;21.60;99.90;;;;;;5014143;28;20224;-78
2021/08/21 00:11:36;;;;;;;2.00;1.83;;;21.60;99.90;;;;;;5008699;28;20230;-78
2021/08/21 00:14:03;;;;;;;2.13;2.03;;;21.60;99.90;;;;;;5010633;28;20281;-77
2021/08/21 00:16:31;;;;;;;2.00;1.80;;;21.60;99.90;;;;;;5011243;28;20232;-77
2021/08/21 00:19:00;;;;;;;1.98;1.77;;;21.60;99.90;;;;;;5010140;28;20281;-79
2021/08/21 00:21:28;;;;;;;2.05;1.95;;;21.60;99.90;;;;;;5006356;28;20273;-79
2021/08/21 00:23:55;;;;;;;2.33;2.13;;;21.50;99.90;;;;;;5005989;28;20270;-78
2021/08/21 00:26:22;;;;;;;2.20;2.00;;;21.50;99.90;;;;;;5003910;28;20290;-77
2021/08/21 00:28:49;;;;;;;2.17;1.98;;;21.50;99.90;;;;;;5011633;28;20629;-78
2021/08/21 00:31:16;;;;;;;2.22;2.03;;;21.50;99.90;;;;;;5004251;28;20232;-79
2021/08/21 00:33:43;;;;;;;1.90;1.80;;;21.50;99.90;;;;;;5010737;28;20223;-78
2021/08/21 00:36:11;;;;;;;1.98;1.88;;;21.40;99.90;;;;;;5008099;28;20227;-78
2021/08/21 00:38:38;;;;;;;2.47;2.28;;;21.40;99.90;;;;;;5005372;28;20220;-78
2021/08/21 00:41:06;;;;;;;2.25;1.88;;;21.40;99.90;;;;;;5004839;28;20779;-78
2021/08/21 00:43:36;;;;;;;1.98;1.80;;;21.30;99.90;;;;;;5007445;28;20239;-78
2021/08/21 00:46:03;;;;;;;2.72;2.17;;;21.30;99.90;;;;;;5005931;28;21668;-78
2021/08/21 00:48:31;;;;;;;2.30;2.10;;;21.40;99.90;;;;;;5007173;28;20224;-78
2021/08/21 00:51:01;;;;;;;1.80;1.70;;;21.40;99.90;;;;;;5006166;28;20772;-79
2021/08/21 00:53:29;;;;;;;2.13;1.92;;;21.40;99.90;;;;;;5006346;28;20223;-78
2021/08/21 00:55:56;;;;;;;2.10;1.92;;;21.40;99.90;;;;;;5010892;28;20282;-78
2021/08/21 00:58:24;;;;;;;2.28;2.08;;;21.40;99.90;;;;;;5005523;28;20231;-78
2021/08/21 01:00:52;;;;;;;2.28;2.08;;;21.40;99.90;;;;;;5005481;28;20232;-78
2021/08/21 01:03:20;;;;;;;2.20;2.00;;;21.30;99.90;;;;;;5005749;28;20245;-77
2021/08/21 01:05:47;;;;;;;2.15;1.90;;;21.30;99.90;;;;;;4994364;28;20240;-78
2021/08/21 01:08:15;;;;;;;2.20;2.00;;;21.40;99.90;;;;;;5008387;28;20223;-78
2021/08/21 01:10:44;;;;;;;2.05;1.85;;;21.30;99.90;;;;;;5012254;28;20780;-78
2021/08/21 01:13:11;;;;;;;2.00;1.90;;;21.30;99.90;;;;;;5016541;28;20232;-78
2021/08/21 01:15:38;;;;;;;2.13;2.03;;;21.20;99.90;;;;;;5007299;28;20647;-79
2021/08/21 01:18:05;;;;;;;2.42;2.22;;;21.30;99.90;;;;;;5008980;28;20760;-78
2021/08/21 01:20:33;;;;;;;2.75;2.20;;;21.20;99.90;;;;;;5010195;28;20578;-77
2021/08/21 01:23:00;;;;;;;2.15;1.95;;;21.20;99.90;;;;;;5009475;28;20278;-78
2021/08/21 01:25:29;;;;;;;2.50;2.30;;;21.20;99.90;;;;;;5011882;28;20729;-78
2021/08/21 01:27:58;;;;;;;2.33;2.13;;;21.20;99.90;;;;;;5015310;28;20223;-78
2021/08/21 01:30:26;;;;;;;2.20;2.00;;;21.20;99.90;;;;;;5012252;28;20223;-79
2021/08/21 01:32:53;;;;;;;2.08;1.92;;;21.20;99.90;;;;;;5009352;28;20231;-78
2021/08/21 01:35:20;;;;;;;2.10;1.98;;;21.20;99.90;;;;;;5010553;28;20254;-79
2021/08/21 01:37:47;;;;;;;2.30;2.10;;;21.20;99.90;;;;;;5006705;28;20220;-77
2021/08/21 01:40:14;;;;;;;2.83;2.28;;;21.20;99.90;;;;;;5011900;28;20228;-78
2021/08/21 01:42:42;;;;;;;2.13;1.95;;;21.20;99.90;;;;;;5007115;28;20282;-80
2021/08/21 01:45:13;;;;;;;2.17;2.00;;;21.20;99.90;;;;;;5015262;28;20228;-78
2021/08/21 01:47:42;;;;;;;2.30;2.10;;;21.20;99.90;;;;;;5007541;28;20826;-78
2021/08/21 01:50:12;;;;;;;2.00;1.90;;;21.20;99.90;;;;;;5002251;28;20224;-78
2021/08/21 01:52:39;;;;;;;2.30;2.10;;;21.10;99.90;;;;;;5007695;28;20227;-78
2021/08/21 01:55:08;;;;;;;2.35;2.15;;;21.10;99.90;;;;;;5011937;28;20290;-78
2021/08/21 01:57:39;;;;;;;2.17;1.98;;;21.10;99.90;;;;;;5010257;28;20315;-77
2021/08/21 02:00:11;;;;;;;2.55;2.10;;;21.10;99.90;;;;;;5010386;28;20232;-78
2021/08/21 02:02:39;;;;;;;2.92;2.15;;;21.10;99.90;;;;;;5007773;28;20232;-79
2021/08/21 02:05:07;;;;;;;2.40;2.17;;;21.10;99.90;;;;;;5003234;28;20289;-77
2021/08/21 02:07:34;;;;;;;2.50;2.30;;;21.00;99.90;;;;;;5006727;28;20278;-78
2021/08/21 02:10:01;;;;;;;2.08;1.88;;;21.00;99.90;;;;;;5007476;28;20235;-78
2021/08/21 02:12:28;;;;;;;3.13;2.15;;;21.00;99.90;;;;;;5017773;28;20220;-78
2021/08/21 02:14:56;;;;;;;2.25;2.05;;;21.00;99.90;;;;;;5008908;28;20232;-79
2021/08/21 02:17:24;;;;;;;2.42;2.10;;;21.00;99.90;;;;;;5008882;28;20768;-78
2021/08/21 02:19:51;;;;;;;2.88;1.90;;;20.90;99.90;;;;;;5000170;28;20694;-78
2021/08/21 02:22:18;;;;;;;2.03;1.83;;;20.90;99.90;;;;;;5008709;28;20285;-78
2021/08/21 02:24:52;;;;;;;2.35;1.75;;;20.90;99.90;;;;;;5005385;28;20760;-77
2021/08/21 02:27:22;;;;;;;2.33;2.13;;;20.90;99.90;;;;;;5011031;28;20220;-77
2021/08/21 02:29:50;;;;;;;2.15;1.92;;;20.90;99.90;;;;;;5006155;28;20228;-78
2021/08/21 02:32:17;;;;;;;2.03;1.92;;;20.90;99.90;;;;;;5003744;28;20262;-79
2021/08/21 02:34:45;;;;;;;2.45;2.25;;;20.80;99.90;;;;;;5007112;28;20216;-77
2021/08/21 02:37:14;;;;;;;2.55;1.85;;;20.80;99.90;;;;;;5008968;28;20228;-78
2021/08/21 02:39:44;;;;;;;2.30;2.10;;;20.80;99.90;;;;;;5010076;28;20287;-78
2021/08/21 02:42:11;;;;;;;2.40;2.20;;;20.70;99.90;;;;;;5006951;28;20216;-78
2021/08/21 02:44:38;;;;;;;2.50;2.30;;;20.70;99.90;;;;;;5006650;28;20706;-78
2021/08/21 02:47:06;;;;;;;2.75;2.28;;;20.70;99.90;;;;;;5011578;28;20235;-78
2021/08/21 02:49:33;;;;;;;2.13;1.92;;;20.70;99.90;;;;;;5007857;28;20228;-76
2021/08/21 02:52:02;;;;;;;3.03;2.33;;;20.70;99.90;;;;;;5007686;28;20228;-77
2021/08/21 02:54:29;;;;;;;2.03;1.90;;;20.70;99.90;;;;;;5011498;28;20227;-78
2021/08/21 02:57:00;;;;;;;2.30;2.00;;;20.60;99.90;;;;;;5007815;28;20216;-77
2021/08/21 02:59:27;;;;;;;2.97;2.22;;;20.60;99.90;;;;;;5007932;28;20590;-78
2021/08/21 03:01:54;;;;;;;2.80;2.08;;;20.60;99.90;;;;;;5011884;28;20227;-78
2021/08/21 03:04:21;;;;;;;2.95;2.10;;;20.60;99.90;;;;;;5011092;28;20792;-76
2021/08/21 03:06:48;;;;;;;2.40;2.20;;;20.60;99.90;;;;;;5012147;28;20228;-78
2021/08/21 03:09:16;;;;;;;3.38;2.28;;;20.50;99.90;;;;;;5007130;28;20236;-78
2021/08/21 03:11:43;;;;;;;2.10;1.90;;;20.50;99.90;;;;;;5005759;28;20769;-78
2021/08/21 03:14:10;;;;;;;2.55;2.35;;;20.50;99.90;;;;;;5009720;28;20220;-77
2021/08/21 03:16:37;;;;;;;2.85;2.25;;;20.40;99.90;;;;;;5008459;28;20278;-78
2021/08/21 03:19:04;;;;;;;2.50;2.22;;;20.40;99.90;;;;;;5009620;28;20785;-78
2021/08/21 03:21:31;;;;;;;2.10;2.00;;;20.40;99.90;;;;;;5008915;28;20223;-77
2021/08/21 03:23:58;;;;;;;2.78;2.58;;;20.40;99.90;;;;;;5005085;28;20635;-78
2021/08/21 03:26:27;;;;;;;2.38;2.17;;;20.30;99.90;;;;;;5006049;28;20236;-78
2021/08/21 03:28:54;;;;;;;2.42;2.22;;;20.30;99.90;;;;;;5009410;28;20331;-77
2021/08/21 03:31:21;;;;;;;2.10;1.90;;;20.30;99.90;;;;;;5004220;28;20702;-79
2021/08/21 03:33:48;;;;;;;3.30;2.35;;;20.20;99.90;;;;;;5003911;28;20299;-78
2021/08/21 03:36:15;;;;;;;2.10;1.90;;;20.20;99.90;;;;;;5004752;28;20267;-78
2021/08/21 03:38:42;;;;;;;2.42;2.22;;;20.20;99.90;;;;;;5005231;28;20227;-78
2021/08/21 03:41:09;;;;;;;2.30;2.10;;;20.20;99.90;;;;;;5005153;28;20223;-77
2021/08/21 03:43:38;;;;;;;2.33;2.08;;;20.20;99.90;;;;;;5006060;28;20282;-78
2021/08/21 03:46:05;;;;;;;2.42;2.22;;;20.20;99.90;;;;;;5012253;28;20705;-78
2021/08/21 03:48:32;;;;;;;2.47;1.85;;;20.20;99.90;;;;;;5004611;28;20231;-78
2021/08/21 03:50:59;;;;;;;2.55;2.35;;;20.10;99.90;;;;;;5007326;23;20234;-75
2021/08/21 03:53:26;;;;;;;2.38;2.20;;;20.10;99.90;;;;;;5020739;28;20278;-75
2021/08/21 03:55:53;;;;;;;2.13;1.95;;;20.20;99.90;;;;;;5024718;28;20294;-76
2021/08/21 03:58:20;;;;;;;2.30;2.10;;;20.20;99.90;;;;;;5024028;28;20242;-76
2021/08/21 04:00:48;;;;;;;2.22;2.00;;;20.20;99.90;;;;;;5021599;28;20602;-76
2021/08/21 04:03:15;;;;;;;2.75;2.55;;;20.10;99.90;;;;;;5016323;28;20991;-76
2021/08/21 04:05:42;;;;;;;2.30;2.10;;;20.10;99.90;;;;;;5020733;28;20250;-76
2021/08/21 04:08:09;;;;;;;2.25;2.05;;;20.10;99.90;;;;;;5018646;28;20598;-75
2021/08/21 04:10:38;;;;;;;2.60;2.20;;;20.10;99.90;;;;;;5012038;28;20235;-76
2021/08/21 04:13:05;;;;;;;2.53;2.33;;;20.00;99.90;;;;;;5014356;28;20597;-76
2021/08/21 04:15:32;;;;;;;2.95;2.35;;;20.00;99.90;;;;;;5017221;28;20236;-76
2021/08/21 04:18:00;;;;;;;1.90;1.80;;;20.00;99.90;;;;;;5018416;28;20227;-76
2021/08/21 04:20:28;;;;;;;2.13;1.92;;;20.00;99.90;;;;;;5014798;28;20227;-76
2021/08/21 04:22:56;;;;;;;2.08;1.83;;;19.90;99.90;;;;;;5014825;28;20404;-76
2021/08/21 04:25:23;;;;;;;2.47;2.28;;;19.90;99.90;;;;;;5016534;28;20293;-76
2021/08/21 04:27:52;;;;;;;2.45;2.25;;;19.90;99.90;;;;;;5018757;28;20305;-76
2021/08/21 04:30:19;;;;;;;2.40;2.20;;;19.90;99.90;;;;;;5016159;28;20251;-76
2021/08/21 04:32:46;;;;;;;3.17;2.33;;;19.80;99.90;;;;;;5016095;28;20219;-76
2021/08/21 04:35:15;;;;;;;2.10;2.00;;;19.80;99.90;;;;;;5019942;28;20219;-76
2021/08/21 04:37:42;;;;;;;2.72;2.47;;;19.80;99.90;;;;;;5022265;28;20602;-77
2021/08/21 04:40:09;;;;;;;2.63;2.42;;;19.80;99.90;;;;;;5019109;28;20277;-76
2021/08/21 04:42:36;;;;;;;2.53;2.33;;;19.80;99.90;;;;;;5015126;28;20322;-76
2021/08/21 04:45:04;;;;;;;5.13;2.22;;;20.00;99.90;;;;;;5016701;28;21019;-77
2021/08/21 04:47:31;;;;;;;2.53;2.33;;;20.00;99.90;;;;;;5015612;28;20227;-76
2021/08/21 04:49:59;;;;;;;4.03;2.57;;;20.00;99.90;;;;;;4906608;28;3237236;-76
2021/08/21 04:52:27;;;;;;;2.63;2.40;;;20.10;99.90;;;;;;5019932;28;20324;-76
2021/08/21 04:54:54;;;;;;;2.50;2.30;;;20.20;99.90;;;;;;5024580;28;20284;-76
2021/08/21 04:57:21;;;;;;;3.00;2.58;;;20.20;99.90;;;;;;5017192;28;20242;-75
2021/08/21 04:59:48;;;;;;;2.85;2.63;;;20.20;99.90;;;;;;5022047;28;20544;-75
2021/08/21 05:02:15;;;;;;;2.90;2.70;;;20.20;99.90;;;;;;5020351;28;20286;-76
2021/08/21 05:04:42;;;;;;;2.70;2.50;;;20.20;99.90;;;;;;5026747;28;20223;-75
2021/08/21 05:07:10;;;;;;;2.90;2.65;;;20.20;99.90;;;;;;5020088;28;20280;-76
2021/08/21 05:09:38;;;;;;;3.20;2.63;;;20.30;99.90;;;;;;5017077;28;20290;-76
2021/08/21 05:12:06;;;;;;;2.75;2.55;;;20.40;99.90;;;;;;5022105;28;20689;-76
2021/08/21 05:14:33;;;;;;;3.60;2.85;;;20.60;99.90;;;;;;5020865;28;20250;-76
2021/08/21 05:16:59;;;;;;;2.65;2.45;;;20.70;99.90;;;;;;5016754;28;20709;-75
2021/08/21 05:19:31;;;;;;;3.20;3.00;;;20.90;99.90;;;;;;5018882;28;20219;-76
2021/08/21 05:22:09;;;;;;;2.88;2.67;;;21.00;99.90;;;;;;5020305;28;20215;-76
2021/08/21 05:24:38;;;;;;;2.78;2.58;;;21.10;99.90;;;;;;5024788;28;20223;-77
2021/08/21 05:27:06;;;;;;;2.88;2.40;;;21.20;99.90;;;;;;5021542;28;20282;-77
2021/08/21 05:29:33;;;;;;;2.60;2.40;;;21.30;99.90;;;;;;5021937;28;20726;-76
2021/08/21 05:32:00;;;;;;;3.03;2.80;;;21.30;99.90;;;;;;5026424;28;20257;-76
2021/08/21 05:34:28;;;;;;;2.90;2.60;;;21.40;99.90;;;;;;5031920;28;20223;-77
2021/08/21 05:36:55;;;;;;;2.50;2.30;;;21.60;99.90;;;;;;5024884;28;20228;-75
2021/08/21 05:39:22;;;;;;;2.60;2.40;;;21.80;99.90;;;;;;5021895;28;20238;-75
2021/08/21 05:41:50;;;;;;;3.08;2.80;;;21.90;99.90;;;;;;5019926;28;20282;-76
2021/08/21 05:44:17;;;;;;;3.17;2.88;;;21.90;99.90;;;;;;5021397;28;20570;-75
2021/08/21 05:46:44;;;;;;;3.47;2.88;;;21.90;99.90;;;;;;5024488;28;20223;-75
2021/08/21 05:49:11;;;;;;;3.08;2.78;;;21.90;99.90;;;;;;5023916;28;20562;-76
2021/08/21 05:51:38;;;;;;;3.33;2.88;;;22.00;99.90;;;;;;5016969;28;20236;-74
2021/08/21 05:54:05;;;;;;;3.42;2.83;;;22.00;99.90;;;;;;5015627;28;20745;-76
2021/08/21 05:56:32;;;;;;;2.80;2.60;;;22.20;99.90;;;;;;5018509;28;20293;-76
2021/08/21 05:59:01;;;;;;;4.85;3.00;;;22.20;99.90;;;;;;5023441;28;20289;-76
2021/08/21 06:01:28;;;;;;;4.57;3.40;;;22.30;99.90;;;;;;5023614;28;20227;-77
2021/08/21 06:03:55;;;;;;;4.57;3.25;;;22.40;99.90;;;;;;5022201;28;20293;-77
2021/08/21 06:06:23;;;;;;;3.83;2.97;;;22.60;99.90;;;;;;5018534;28;20235;-76
2021/08/21 06:08:51;;;;;;;4.80;2.80;;;22.80;99.90;;;;;;5017454;28;20222;-77
2021/08/21 06:11:18;;;;;;;3.28;2.97;;;22.90;99.90;;;;;;5023960;28;20301;-76
2021/08/21 06:13:45;;;;;;;2.90;2.65;;;23.10;99.90;;;;;;5017329;28;20768;-77
2021/08/21 06:16:13;;;;;;;4.10;2.88;;;23.20;99.90;;;;;;5020201;28;20297;-75
2021/08/21 06:18:40;;;;;;;3.95;3.03;;;23.30;99.90;;;;;;5017654;28;20269;-77
2021/08/21 06:21:07;;;;;;;5.00;3.13;;;23.30;99.90;;;;;;5018493;28;20218;-76
2021/08/21 06:23:34;;;;;;;4.72;3.30;;;23.30;99.90;;;;;;5020197;28;20811;-75
2021/08/21 06:26:01;;;;;;;3.00;2.65;;;23.30;99.90;;;;;;5021052;28;20326;-77
2021/08/21 06:28:28;;;;;;;4.35;2.78;;;23.30;99.90;;;;;;5016385;28;20224;-76
2021/08/21 06:30:55;;;;;;;4.55;3.05;;;23.30;99.90;;;;;;5018201;28;20239;-76
2021/08/21 06:33:24;;;;;;;3.03;2.67;;;23.40;99.90;;;;;;5020801;28;20223;-76
2021/08/21 06:35:51;;;;;;;2.85;2.63;;;23.40;99.90;;;;;;5020399;28;20216;-76
2021/08/21 06:38:18;;;;;;;3.45;2.65;;;23.50;99.90;;;;;;5019412;28;20233;-76
2021/08/21 06:40:45;;;;;;;4.70;2.88;;;23.50;99.90;;;;;;5020989;28;20227;-76
2021/08/21 06:43:12;;;;;;;3.50;2.95;;;23.50;99.90;;;;;;5020411;28;20847;-77
2021/08/21 06:45:39;;;;;;;4.38;3.50;;;23.50;99.90;;;;;;5015485;28;20266;-77
2021/08/21 06:48:06;;;;;;;6.38;3.70;;;23.50;99.90;;;;;;5016652;28;20315;-77
2021/08/21 06:50:36;;;;;;;3.67;3.28;;;23.50;99.90;;;;;;5017011;28;20308;-75
2021/08/21 06:53:04;;;;;;;3.25;2.95;;;23.50;99.90;;;;;;5017930;28;20251;-76
2021/08/21 06:55:31;;;;;;;4.18;3.05;;;23.60;99.90;;;;;;5018360;28;20285;-75
2021/08/21 06:57:58;;;;;;;4.45;2.83;;;23.70;99.90;;;;;;5016446;28;20224;-76
2021/08/21 07:00:25;;;;;;;2.75;2.55;;;23.80;99.90;;;;;;5015407;28;20317;-75
2021/08/21 07:02:52;;;;;;;3.35;3.08;;;23.80;99.90;;;;;;5020078;28;20227;-75
2021/08/21 07:05:20;;;;;;;3.10;2.90;;;24.00;99.90;;;;;;5016860;28;20790;-74
2021/08/21 07:07:48;;;;;;;3.67;3.30;;;24.10;99.90;;;;;;5020355;28;20231;-75
2021/08/21 07:10:15;;;;;;;3.35;3.05;;;24.00;99.90;;;;;;5019181;28;20296;-75
2021/08/21 07:12:42;;;;;;;4.60;2.92;;;23.90;99.90;;;;;;5016511;28;20224;-75
2021/08/21 07:15:10;;;;;;;5.18;3.35;;;23.80;99.90;;;;;;5018329;28;20285;-76
2021/08/21 07:17:37;;;;;;;4.18;3.30;;;23.80;99.90;;;;;;5016831;28;20738;-75
2021/08/21 07:20:06;;;;;;;3.03;2.83;;;23.80;99.90;;;;;;5015749;28;20234;-76
2021/08/21 07:22:33;;;;;;;5.05;3.88;;;23.80;99.90;;;;;;5016144;28;20737;-75
2021/08/21 07:25:01;;;;;;;3.58;3.25;;;23.80;99.90;;;;;;5014673;28;20230;-75
2021/08/21 07:27:28;;;;;;;3.80;3.38;;;23.70;99.90;;;;;;5014925;28;20718;-76
2021/08/21 07:29:55;;;;;;;3.75;3.35;;;23.70;99.90;;;;;;5016807;28;20215;-76
2021/08/21 07:32:22;;;;;;;3.65;3.20;;;23.90;99.90;;;;;;5019151;28;20235;-74
2021/08/21 07:34:49;;;;;;;3.47;3.17;;;24.00;99.90;;;;;;5017757;28;20207;-75
2021/08/21 07:37:16;;;;;;;3.92;3.45;;;24.10;99.90;;;;;;5019183;28;20216;-76
2021/08/21 07:39:43;;;;;;;4.20;3.80;;;24.40;99.90;;;;;;5019759;28;20280;-73
2021/08/21 07:42:11;;;;;;;4.65;4.15;;;24.40;99.90;;;;;;5019025;28;20223;-76
2021/08/21 07:44:39;;;;;;;3.72;3.42;;;24.20;99.90;;;;;;5014094;28;20265;-76
2021/08/21 07:47:06;;;;;;;3.22;2.92;;;24.10;99.90;;;;;;5021096;28;20230;-76
2021/08/21 07:49:33;;;;;;;3.90;3.50;;;24.10;99.90;;;;;;5016149;28;20231;-74
2021/08/21 07:52:00;;;;;;;6.35;3.20;;;24.20;99.90;;;;;;5017019;28;20231;-77
2021/08/21 07:54:27;;;;;;;3.58;3.28;;;24.40;99.90;;;;;;5017140;28;20220;-76
2021/08/21 07:56:54;;;;;;;3.53;3.10;;;24.50;99.90;;;;;;5021015;28;20597;-76
2021/08/21 07:59:22;;;;;;;3.03;2.83;;;24.70;99.90;;;;;;5018920;28;20252;-74
2021/08/21 08:01:49;;;;;;;3.58;3.28;;;24.80;99.90;;;;;;5016184;28;20227;-76
2021/08/21 08:04:16;;;;;;;3.47;3.17;;;24.80;99.90;;;;;;5020794;28;20473;-76
2021/08/21 08:06:43;;;;;;;4.43;3.40;;;25.00;99.90;;;;;;5017355;28;20764;-75
2021/08/21 08:09:10;;;;;;;3.85;3.50;;;25.10;99.90;;;;;;5019557;28;20223;-76
2021/08/21 08:11:37;;;;;;;3.65;3.30;;;25.20;99.90;;;;;;5019280;28;20223;-76
2021/08/21 08:14:04;;;;;;;3.83;3.40;;;25.20;99.90;;;;;;5018410;28;20238;-76
2021/08/21 08:16:33;;;;;;;3.75;3.45;;;25.40;99.90;;;;;;5020045;28;20223;-76
2021/08/21 08:19:00;;;;;;;3.42;3.13;;;25.50;99.90;;;;;;5025877;28;20652;-75
2021/08/21 08:21:27;;;;;;;3.92;3.63;;;25.50;99.90;;;;;;5017927;28;20227;-76
2021/08/21 08:23:55;;;;;;;4.00;3.60;;;25.40;99.90;;;;;;5018119;28;20223;-76
2021/08/21 08:26:22;;;;;;;3.38;3.08;;;25.40;99.90;;;;;;5017733;28;20219;-75
2021/08/21 08:28:49;;;;;;;4.03;3.72;;;25.60;99.90;;;;;;5020074;28;20706;-75
2021/08/21 08:31:17;;;;;;;3.53;3.22;;;25.80;99.90;;;;;;5016116;28;20216;-77
2021/08/21 08:33:45;;;;;;;4.03;3.55;;;25.90;99.90;;;;;;5017571;28;20245;-76
2021/08/21 08:36:12;;;;;;;3.83;3.53;;;26.10;99.90;;;;;;5019352;28;20230;-76
2021/08/21 08:38:39;;;;;;;3.97;3.38;;;26.20;99.90;;;;;;5021058;28;20215;-75
2021/08/21 08:41:10;;;;;;;3.90;3.60;;;26.20;99.90;;;;;;5018894;28;20227;-77
2021/08/21 08:43:37;;;;;;;5.55;3.20;;;26.30;99.90;;;;;;5016182;28;20309;-77
2021/08/21 08:46:05;;;;;;;3.80;3.40;;;26.40;99.90;;;;;;5019337;28;20236;-77
2021/08/21 08:48:35;;;;;;;3.83;3.53;;;26.50;99.90;;;;;;5015710;28;20223;-76
2021/08/21 08:51:04;;;;;;;4.15;3.83;;;26.40;99.90;;;;;;5019623;28;20310;-76
2021/08/21 08:53:31;;;;;;;4.28;3.80;;;26.20;99.90;;;;;;5015938;28;20230;-75
2021/08/21 08:55:58;;;;;;;4.63;3.55;;;26.40;99.90;;;;;;5020248;28;20231;-76
2021/08/21 08:58:25;;;;;;;4.05;3.72;;;26.60;99.90;;;;;;5022808;28;20289;-76
2021/08/21 09:00:52;;;;;;;3.70;3.38;;;26.80;99.90;;;;;;5018259;28;20240;-76
2021/08/21 09:03:21;;;;;;;4.35;3.75;;;27.00;99.90;;;;;;5014515;28;20243;-77
2021/08/21 09:05:49;;;;;;;3.65;3.33;;;27.10;99.90;;;;;;5017104;28;20714;-76
2021/08/21 09:08:23;;;;;;;4.53;2.97;;;27.00;99.90;;;;;;5015792;28;20231;-77
2021/08/21 09:10:51;;;;;;;3.90;3.53;;;27.00;99.90;;;;;;5019109;28;20273;-76
2021/08/21 09:13:19;;;;;;;3.45;3.15;;;27.10;99.90;;;;;;5017470;28;20285;-76
2021/08/21 09:15:48;;;;;;;4.13;3.65;;;27.40;99.90;;;;;;5019939;28;20215;-78
2021/08/21 09:18:17;;;;;;;4.15;3.40;;;27.30;99.90;;;;;;5015426;28;20223;-77
2021/08/21 09:21:00;;;;;;;4.07;3.58;;;27.30;99.90;;;;;;5019671;28;20235;-77
2021/08/21 09:23:33;;;;;;;5.38;3.67;;;27.40;99.90;;;;;;5018699;28;20281;-76
2021/08/21 09:26:09;;;;;;;4.18;3.67;;;27.70;99.90;;;;;;5021833;28;20289;-76
2021/08/21 09:28:37;;;;;;;4.60;3.30;;;27.50;99.90;;;;;;5018322;28;20227;-77
2021/08/21 09:31:07;;;;;;;3.95;3.65;;;27.50;99.90;;;;;;5025923;28;20239;-78
2021/08/21 09:33:36;;;;;;;4.40;3.75;;;27.50;99.90;;;;;;5016550;28;20236;-77
2021/08/21 09:36:04;;;;;;;3.58;3.28;;;27.50;99.90;;;;;;5022176;28;20215;-73
2021/08/21 09:38:33;;;;;;;3.55;3.25;;;27.40;99.90;;;;;;5021202;28;20227;-75
2021/08/21 09:41:05;;;;;;;3.50;3.20;;;27.50;99.90;;;;;;5020300;28;20243;-73
2021/08/21 09:43:35;;;;;;;3.80;3.50;;;27.60;99.90;;;;;;5020826;28;20212;-75
2021/08/21 09:46:11;;;;;;;3.65;3.30;;;27.70;99.90;;;;;;5021808;28;20232;-75
2021/08/21 09:49:00;;;;;;;3.50;3.20;;;27.80;99.90;;;;;;5021659;28;20224;-75
2021/08/21 09:51:44;;;;;;;4.13;3.22;;;27.90;99.90;;;;;;5024041;28;20231;-75
2021/08/21 09:54:17;;;;;;;4.18;3.20;;;27.80;99.90;;;;;;5023662;23;20223;-75
2021/08/21 09:56:46;;;;;;;3.50;3.20;;;27.80;99.90;;;;;;5010308;28;20270;-77
2021/08/21 09:59:13;;;;;;;3.50;3.20;;;28.00;99.90;;;;;;5011667;28;20698;-77
2021/08/21 10:01:42;;;;;;;5.15;4.20;;;28.30;99.90;;;;;;5022600;28;20591;-78
2021/08/21 10:04:10;;;;;;;3.65;3.20;;;28.30;99.90;;;;;;5014318;28;20682;-77
2021/08/21 10:06:38;;;;;;;3.30;3.00;;;28.40;99.90;;;;;;5009522;28;20294;-78
2021/08/21 10:09:08;;;;;;;3.00;2.80;;;28.20;99.90;;;;;;5001862;28;20236;-78
2021/08/21 10:11:36;;;;;;;4.40;3.72;;;28.20;99.90;;;;;;5002766;28;20311;-78
2021/08/21 10:14:05;;;;;;;3.60;3.30;;;28.20;99.90;;;;;;5001176;28;20240;-77
2021/08/21 10:16:33;;;;;;;3.58;3.28;;;28.10;99.90;;;;;;5002024;28;20252;-77
2021/08/21 10:19:01;;;;;;;3.42;3.13;;;28.30;99.90;;;;;;5009652;28;20243;-77
2021/08/21 10:21:28;;;;;;;3.47;3.08;;;28.50;99.90;;;;;;4997219;28;20228;-78
2021/08/21 10:23:57;;;;;;;3.40;3.10;;;28.70;99.90;;;;;;5011415;28;20228;-78
2021/08/21 10:26:29;;;;;;;3.60;3.20;;;28.90;99.90;;;;;;5011564;28;20310;-77
2021/08/21 10:29:00;;;;;;;3.97;3.17;;;29.10;99.90;;;;;;5005861;28;20285;-78
2021/08/21 10:31:51;;;;;;;3.92;3.50;;;29.00;99.90;;;;;;5008764;28;20232;-77
2021/08/21 10:34:18;;;;;;;3.53;3.22;;;28.80;99.90;;;;;;4990152;28;20725;-78
2021/08/21 10:36:53;;;;;;;3.13;2.83;;;28.80;99.90;;;;;;5000193;28;20227;-78
2021/08/21 10:39:25;;;;;;;3.50;3.20;;;28.90;99.90;;;;;;5004252;28;20220;-77
2021/08/21 10:41:54;;;;;;;2.95;2.75;;;29.00;99.90;;;;;;5003937;28;20619;-78
2021/08/21 10:44:43;;;;;;;3.45;2.63;;;29.10;99.90;;;;;;5016119;28;20605;-76
2021/08/21 10:47:36;;;;;;;3.85;2.90;;;29.30;99.90;;;;;;5008264;28;20220;-78
2021/08/21 10:50:33;;;;;;;3.28;2.97;;;29.30;99.90;;;;;;4998188;28;20232;-78
2021/08/21 10:53:02;;;;;;;3.83;3.45;;;29.00;99.90;;;;;;5009985;28;20227;-77
2021/08/21 10:55:37;;;;;;;3.55;3.20;;;29.00;99.90;;;;;;5008967;28;20224;-77
2021/08/21 10:58:10;;;;;;;3.17;2.90;;;29.00;99.90;;;;;;5005040;28;20255;-78
2021/08/21 11:01:02;;;;;;;3.40;3.10;;;29.20;99.90;;;;;;5002649;28;20642;-78
2021/08/21 11:03:50;;;;;;;3.20;2.78;;;29.20;99.90;;;;;;5008680;28;20227;-78
2021/08/21 11:06:33;;;;;;;2.75;2.55;;;29.20;99.90;;;;;;5005240;28;20220;-77
2021/08/21 11:09:08;;;;;;;3.47;2.80;;;29.20;99.90;;;;;;5008543;28;20244;-78
2021/08/21 11:11:42;;;;;;;3.95;3.00;;;29.20;99.90;;;;;;5007702;28;20282;-77
2021/08/21 11:14:28;;;;;;;4.05;3.25;;;29.20;99.90;;;;;;5008976;28;20295;-78
2021/08/21 11:16:59;;;;;;;3.38;3.05;;;29.10;99.90;;;;;;5004656;28;20224;-77
2021/08/21 11:19:46;;;;;;;3.83;3.45;;;29.10;99.90;;;;;;5007108;28;20234;-78
2021/08/21 11:22:21;;;;;;;4.13;3.30;;;29.20;99.90;;;;;;5000383;28;20243;-78
2021/08/21 11:25:16;;;;;;;3.67;2.95;;;29.10;99.90;;;;;;5004002;28;20224;-78
2021/08/21 11:27:45;;;;;;;4.15;3.00;;;29.00;99.90;;;;;;5002227;28;20220;-77
2021/08/21 11:30:27;;;;;;;5.30;3.28;;;29.10;99.90;;;;;;5005227;28;20220;-77
2021/08/21 11:33:12;;;;;;;4.05;3.20;;;28.90;99.90;;;;;;5004554;28;20303;-78
2021/08/21 11:35:48;;;;;;;3.42;3.13;;;28.90;99.90;;;;;;4999921;28;20228;-77
2021/08/21 11:38:17;;;;;;;3.08;2.70;;;28.70;99.90;;;;;;5004584;28;20262;-78
2021/08/21 11:40:46;;;;;;;3.88;3.10;;;28.80;99.90;;;;;;5012567;28;20205;-79
2021/08/21 11:43:15;;;;;;;3.80;3.50;;;28.90;99.90;;;;;;5006827;28;20232;-77
2021/08/21 11:45:43;;;;;;;3.75;2.92;;;29.00;99.90;;;;;;5004024;28;20213;-78
2021/08/21 11:48:12;;;;;;;4.18;3.13;;;29.00;99.90;;;;;;5003623;28;20228;-78
2021/08/21 11:50:42;;;;;;;4.30;3.08;;;29.20;99.90;;;;;;4996903;28;20231;-78
2021/08/21 11:53:10;;;;;;;3.30;3.00;;;29.30;99.90;;;;;;5004654;28;20225;-78
2021/08/21 11:55:39;;;;;;;3.70;3.40;;;29.40;99.90;;;;;;5005995;28;20239;-79
2021/08/21 11:58:07;;;;;;;4.57;3.60;;;29.40;99.90;;;;;;5003831;28;20231;-78
2021/08/21 12:00:36;;;;;;;3.33;3.03;;;29.30;99.90;;;;;;4999414;28;20560;-78
2021/08/21 12:03:06;;;;;;;4.85;3.80;;;29.30;99.90;;;;;;5002795;28;20251;-77
2021/08/21 12:05:37;;;;;;;3.38;3.08;;;29.40;99.90;;;;;;5001073;28;20220;-77
2021/08/21 12:08:22;;;;;;;3.22;2.83;;;29.70;99.90;;;;;;5002739;28;20725;-78
2021/08/21 12:10:52;;;;;;;3.25;3.00;;;29.80;99.90;;;;;;5000980;28;20646;-78
2021/08/21 12:13:21;;;;;;;3.53;3.22;;;29.90;99.90;;;;;;4998359;28;20669;-77
2021/08/21 12:15:50;;;;;;;3.38;2.95;;;29.90;99.90;;;;;;5002431;28;20274;-78
2021/08/21 12:18:18;;;;;;;3.20;2.90;;;30.10;99.90;;;;;;5002378;28;20319;-78
2021/08/21 12:20:47;;;;;;;3.05;2.78;;;30.50;99.90;;;;;;5001302;28;20360;-78
2021/08/21 12:23:15;;;;;;;4.50;3.15;;;30.80;99.90;;;;;;5001193;28;20567;-77
2021/08/21 12:25:54;;;;;;;3.90;2.85;;;30.60;99.90;;;;;;4998915;28;20662;-78
2021/08/21 12:28:24;;;;;;;4.07;3.50;;;30.50;99.90;;;;;;4998939;28;20299;-77
2021/08/21 12:30:56;;;;;;;7.03;3.45;;;30.40;99.90;;;;;;5004508;28;20221;-78
2021/08/21 12:33:31;;;;;;;3.50;3.20;;;30.30;99.90;;;;;;5006978;28;20228;-77
2021/08/21 12:36:10;;;;;;;3.25;2.92;;;30.30;99.90;;;;;;5002321;28;20223;-77
2021/08/21 12:38:38;;;;;;;3.80;2.70;;;30.20;99.90;;;;;;4997553;28;20229;-77
2021/08/21 12:41:10;;;;;;;3.47;2.92;;;30.30;99.90;;;;;;4998799;28;20228;-78
2021/08/21 12:43:39;;;;;;;3.25;2.95;;;30.20;99.90;;;;;;5007001;28;20234;-76
2021/08/21 12:46:18;;;;;;;3.20;2.90;;;30.20;99.90;;;;;;5008287;28;20221;-77
2021/08/21 12:48:45;;;;;;;4.65;3.33;;;30.20;99.90;;;;;;5012326;28;20301;-77
2021/08/21 12:51:13;;;;;;;3.67;3.15;;;30.10;99.90;;;;;;4998340;28;20575;-76
2021/08/21 12:53:40;;;;;;;3.40;3.10;;;30.00;99.90;;;;;;5003798;28;20266;-76
2021/08/21 12:56:10;;;;;;;4.93;3.30;;;29.80;99.90;;;;;;5003622;28;20642;-76
2021/08/21 12:58:37;;;;;;;3.47;2.90;;;29.80;99.90;;;;;;5012363;28;20933;-77